createdAt,value
2019-01-26T00:02:02.590Z,98488.20
2019-01-26T00:04:35.961Z,98488.35
2019-01-26T00:07:07.709Z,98478.66
2019-01-26T00:09:43.245Z,98478.88
2019-01-26T00:12:15.823Z,98476.91
2019-01-26T00:14:51.275Z,98470.53
2019-01-26T00:17:23.749Z,98471.86
2019-01-26T00:19:58.268Z,98473.81
2019-01-26T00:22:31.586Z,98472.83
2019-01-26T00:25:06.325Z,98468.95
2019-01-26T00:27:39.508Z,98470.92
2019-01-26T00:30:12.501Z,98473.50
2019-01-26T00:32:44.838Z,98476.14
2019-01-26T00:35:19.163Z,98474.53
2019-01-26T00:37:51.934Z,98473.86
2019-01-26T00:40:25.985Z,98474.20
2019-01-26T00:42:57.933Z,98473.20
2019-01-26T00:45:30.935Z,98470.28
2019-01-26T00:48:02.299Z,98464.09
2019-01-26T00:50:33.632Z,98472.22
2019-01-26T00:53:06.830Z,98477.14
2019-01-26T00:55:40.926Z,98472.92
2019-01-26T00:58:12.468Z,98468.16
2019-01-26T01:00:44.816Z,98463.11
2019-01-26T01:03:18.848Z,98460.86
2019-01-26T01:05:50.932Z,98460.53
2019-01-26T01:08:23.918Z,98465.44
2019-01-26T01:10:55.668Z,98463.44
2019-01-26T01:13:27.019Z,98459.86
2019-01-26T01:16:00.846Z,98464.23
2019-01-26T01:18:32.489Z,98466.55
2019-01-26T01:21:05.022Z,98466.03
2019-01-26T01:23:36.433Z,98463.75
2019-01-26T01:26:10.202Z,98463.47
2019-01-26T01:28:44.195Z,98452.05
2019-01-26T01:31:17.192Z,98451.73
2019-01-26T01:33:48.965Z,98456.49
2019-01-26T01:36:23.077Z,98460.24
2019-01-26T01:38:58.625Z,98450.31
2019-01-26T01:41:30.271Z,98450.48
2019-01-26T01:44:02.068Z,98454.06
2019-01-26T01:46:35.229Z,98440.04
2019-01-26T01:49:08.252Z,98437.11
2019-01-26T01:51:40.363Z,98435.83
2019-01-26T01:54:11.693Z,98436.98
2019-01-26T01:56:45.137Z,98435.52
2019-01-26T01:59:19.354Z,98430.45
2019-01-26T02:01:51.289Z,98419.05
2019-01-26T02:04:24.098Z,98416.59
2019-01-26T02:06:58.209Z,98410.57
2019-01-26T02:09:32.044Z,98409.09
2019-01-26T02:12:06.253Z,98414.64
2019-01-26T02:14:39.339Z,98413.33
2019-01-26T02:17:13.642Z,98410.08
2019-01-26T02:19:47.267Z,98406.16
2019-01-26T02:22:18.577Z,98406.16
2019-01-26T02:24:52.200Z,98397.20
2019-01-26T02:27:23.459Z,98398.81
2019-01-26T02:29:57.254Z,98395.09
2019-01-26T02:32:31.541Z,98391.82
2019-01-26T02:35:06.011Z,98397.00
2019-01-26T02:37:39.651Z,98385.93
2019-01-26T02:40:13.823Z,98385.59
2019-01-26T02:42:46.354Z,98376.77
2019-01-26T02:45:21.865Z,98375.78
2019-01-26T02:47:54.336Z,98380.00
2019-01-26T02:50:29.908Z,98376.72
2019-01-26T02:53:02.554Z,98364.31
2019-01-26T02:55:33.798Z,98355.14
2019-01-26T02:58:07.571Z,98352.05
2019-01-26T03:00:41.489Z,98344.21
2019-01-26T03:03:12.755Z,98350.41
2019-01-26T03:05:46.441Z,98351.52
2019-01-26T03:08:18.423Z,98350.55
2019-01-26T03:10:51.563Z,98349.21
2019-01-26T03:13:24.697Z,98351.52
2019-01-26T03:15:56.307Z,98345.00
2019-01-26T03:18:27.586Z,98337.84
2019-01-26T03:21:01.597Z,98343.36
2019-01-26T03:23:35.780Z,98342.72
2019-01-26T03:26:08.672Z,98345.97
2019-01-26T03:28:43.401Z,98335.19
2019-01-26T03:31:15.592Z,98327.31
2019-01-26T03:33:47.592Z,98331.37
2019-01-26T03:36:18.858Z,98336.06
2019-01-26T03:38:52.687Z,98321.36
2019-01-26T03:41:26.619Z,98312.21
2019-01-26T03:44:00.640Z,98299.77
2019-01-26T03:46:34.646Z,98296.82
2019-01-26T03:49:10.270Z,98287.98
2019-01-26T03:51:42.674Z,98281.09
2019-01-26T03:54:15.771Z,98271.45
2019-01-26T03:56:49.866Z,98269.00
2019-01-26T03:59:21.663Z,98263.83
2019-01-26T04:01:54.878Z,98268.67
2019-01-26T04:04:28.809Z,98268.72
2019-01-26T04:07:00.172Z,98265.48
2019-01-26T04:09:33.701Z,98262.39
2019-01-26T04:12:07.802Z,98256.70
2019-01-26T04:14:41.729Z,98249.20
2019-01-26T04:17:21.795Z,98235.17
2019-01-26T04:19:49.733Z,98228.16
2019-01-26T04:22:20.982Z,98225.41
2019-01-26T04:24:56.894Z,98222.12
2019-01-26T04:27:28.792Z,98213.67
2019-01-26T04:30:01.885Z,98214.97
2019-01-26T04:32:33.918Z,98218.55
2019-01-26T04:35:07.261Z,98212.36
2019-01-26T04:37:40.930Z,98203.06
2019-01-26T04:40:13.935Z,98202.05
2019-01-26T04:42:45.711Z,98196.97
2019-01-26T04:45:21.961Z,98209.53
2019-01-26T04:47:53.742Z,98201.50
2019-01-26T04:50:28.027Z,98199.66
2019-01-26T04:53:01.803Z,98190.69
2019-01-26T04:55:33.153Z,98182.42
2019-01-26T04:58:06.887Z,98189.58
2019-01-26T05:00:41.005Z,98182.41
2019-01-26T05:03:12.767Z,98168.03
2019-01-26T05:05:46.085Z,98164.36
2019-01-26T05:08:19.142Z,98168.64
2019-01-26T05:10:50.814Z,98162.72
2019-01-26T05:13:26.444Z,98167.10
2019-01-26T05:15:59.053Z,98161.02
2019-01-26T05:18:32.105Z,98155.59
2019-01-26T05:21:04.169Z,98150.91
2019-01-26T05:23:39.652Z,98149.50
2019-01-26T05:26:12.196Z,98146.73
2019-01-26T05:28:44.433Z,98129.31
2019-01-26T05:31:17.614Z,98127.34
2019-01-26T05:33:48.879Z,98108.83
2019-01-26T05:36:22.092Z,98103.34
2019-01-26T05:38:56.216Z,98102.89
2019-01-26T05:41:28.071Z,98099.91
2019-01-26T05:44:01.109Z,98083.80
2019-01-26T05:46:32.423Z,98083.14
2019-01-26T05:49:04.033Z,98076.11
2019-01-26T05:51:37.451Z,98080.73
2019-01-26T05:54:11.341Z,98075.49
2019-01-26T05:56:42.780Z,98072.14
2019-01-26T05:59:14.178Z,98071.77
2019-01-26T06:01:47.741Z,98065.27
2019-01-26T06:04:21.312Z,98062.86
2019-01-26T06:06:55.363Z,98052.05
2019-01-26T06:09:29.287Z,98064.16
2019-01-26T06:12:03.296Z,98059.91
2019-01-26T06:14:35.032Z,98059.66
2019-01-26T06:17:08.469Z,98061.96
2019-01-26T06:19:42.476Z,98070.13
2019-01-26T06:22:15.261Z,98068.13
2019-01-26T06:24:47.210Z,98066.78
2019-01-26T06:27:21.244Z,98058.03
2019-01-26T06:29:52.566Z,98049.81
2019-01-26T06:32:24.486Z,98042.77
2019-01-26T06:34:57.242Z,98037.36
2019-01-26T06:37:28.558Z,98039.03
2019-01-26T06:40:02.456Z,98040.02
2019-01-26T06:42:35.454Z,98037.94
2019-01-26T06:45:10.429Z,98037.50
2019-01-26T06:47:43.432Z,98038.49
2019-01-26T06:50:19.638Z,98031.89
2019-01-26T06:52:51.519Z,98033.58
2019-01-26T06:55:25.388Z,98042.66
2019-01-26T06:57:59.648Z,98046.03
2019-01-26T07:00:32.761Z,98055.08
2019-01-26T07:03:04.373Z,98063.98
2019-01-26T07:05:52.056Z,98072.05
2019-01-26T07:08:24.769Z,98077.05
2019-01-26T07:10:56.300Z,98075.99
2019-01-26T07:13:29.432Z,98087.22
2019-01-26T07:16:03.587Z,98084.73
2019-01-26T07:18:38.426Z,98079.62
2019-01-26T07:21:11.466Z,98086.45
2019-01-26T07:23:45.466Z,98087.52
2019-01-26T07:26:16.725Z,98085.97
2019-01-26T07:28:48.042Z,98080.98
2019-01-26T07:31:22.787Z,98075.55
2019-01-26T07:33:55.702Z,98080.04
2019-01-26T07:36:31.369Z,98079.67
2019-01-26T07:39:05.092Z,98083.34
2019-01-26T07:41:36.651Z,98076.44
2019-01-26T07:44:08.427Z,98077.30
2019-01-26T07:46:39.678Z,98076.75
2019-01-26T07:49:12.374Z,98073.08
2019-01-26T07:51:44.644Z,98088.53
2019-01-26T07:54:20.351Z,98089.77
2019-01-26T07:56:51.618Z,98084.35
2019-01-26T07:59:24.653Z,98082.11
2019-01-26T08:01:55.931Z,98078.80
2019-01-26T08:04:28.840Z,98085.27
2019-01-26T08:07:01.851Z,98071.88
2019-01-26T08:09:33.192Z,98074.63
2019-01-26T08:12:05.067Z,98074.63
2019-01-26T08:14:37.861Z,98064.59
2019-01-26T08:17:12.466Z,98068.70
2019-01-26T08:19:46.030Z,98071.64
2019-01-26T08:22:18.867Z,98072.50
2019-01-26T08:24:50.875Z,98085.34
2019-01-26T08:27:24.775Z,98078.88
2019-01-26T08:29:56.152Z,98081.66
2019-01-26T08:32:29.814Z,98079.36
2019-01-26T08:35:03.351Z,98071.74
2019-01-26T08:37:37.019Z,98080.21
2019-01-26T08:40:12.496Z,98087.77
2019-01-26T08:42:44.025Z,98082.16
2019-01-26T08:45:16.357Z,98081.38
2019-01-26T08:47:47.853Z,98081.38
2019-01-26T08:50:25.610Z,98076.89
2019-01-26T08:52:57.880Z,98072.52
2019-01-26T08:55:31.947Z,98071.91
2019-01-26T08:58:06.033Z,98084.05
2019-01-26T09:00:37.368Z,98085.33
2019-01-26T09:03:22.347Z,98073.42
2019-01-26T09:06:06.201Z,98076.86
2019-01-26T09:08:40.006Z,98067.80
2019-01-26T09:11:11.724Z,98070.13
2019-01-26T09:13:46.728Z,98071.58
2019-01-26T09:16:19.351Z,98070.06
2019-01-26T09:18:53.259Z,98056.25
2019-01-26T09:21:27.088Z,98059.10
2019-01-26T09:24:01.245Z,98053.59
2019-01-26T09:26:37.573Z,98053.36
2019-01-26T09:29:10.704Z,98061.81
2019-01-26T09:31:43.315Z,98057.99
2019-01-26T09:34:16.188Z,98065.58
2019-01-26T09:36:48.301Z,98066.89
2019-01-26T09:39:22.386Z,98068.45
2019-01-26T09:41:53.740Z,98067.96
2019-01-26T09:44:27.550Z,98063.17
2019-01-26T09:47:02.462Z,98056.92
2019-01-26T09:49:36.640Z,98049.55
2019-01-26T09:52:09.545Z,98049.34
2019-01-26T09:54:45.976Z,98050.80
2019-01-26T09:57:23.936Z,98045.27
2019-01-26T09:59:57.615Z,98041.73
2019-01-26T10:02:34.655Z,98048.81
2019-01-26T10:05:13.187Z,98038.12
2019-01-26T10:07:56.802Z,98032.86
2019-01-26T10:10:35.387Z,98025.19
2019-01-26T10:13:11.282Z,98020.84
2019-01-26T10:15:52.910Z,98023.17
2019-01-26T10:18:28.132Z,98023.16
2019-01-26T10:21:04.771Z,97833.60
2019-01-26T10:23:45.685Z,98025.78
2019-01-26T10:26:22.611Z,98013.77
2019-01-26T10:29:01.183Z,98018.92
2019-01-26T10:31:35.865Z,98013.28
2019-01-26T10:34:09.129Z,98009.02
2019-01-26T10:36:51.387Z,98006.30
2019-01-26T10:39:29.093Z,98006.39
2019-01-26T10:42:33.873Z,98007.92
2019-01-26T10:45:08.690Z,98009.73
2019-01-26T10:47:43.567Z,98009.62
2019-01-26T10:50:16.510Z,98004.05
2019-01-26T10:52:48.555Z,97992.63
2019-01-26T10:55:20.931Z,97991.79
2019-01-26T10:57:57.455Z,97994.91
2019-01-26T11:00:29.101Z,97991.06
2019-01-26T11:03:05.996Z,97988.44
2019-01-26T11:05:42.241Z,97986.31
2019-01-26T11:08:16.294Z,97981.55
2019-01-26T11:10:48.008Z,97983.58
2019-01-26T11:13:27.141Z,97969.89
2019-01-26T11:15:58.899Z,97959.82
2019-01-26T11:18:43.203Z,97960.74
2019-01-26T11:21:23.470Z,97961.23
2019-01-26T11:24:14.842Z,97952.22
2019-01-26T11:27:05.355Z,97952.11
2019-01-26T11:29:45.810Z,97946.53
2019-01-26T11:32:33.702Z,97950.66
2019-01-26T11:35:29.965Z,97946.81
2019-01-26T11:38:15.165Z,97943.19
2019-01-26T11:41:12.868Z,97937.68
2019-01-26T11:44:32.706Z,97938.01
2019-01-26T11:48:05.866Z,97930.19
2019-01-26T11:51:29.695Z,97933.66
2019-01-26T11:58:45.944Z,97931.66
2019-01-26T12:02:05.194Z,97922.71
2019-01-26T12:05:23.226Z,97925.32
2019-01-26T12:08:59.988Z,97917.03
2019-01-26T12:12:24.155Z,97917.53
2019-01-26T12:15:37.562Z,97905.22
2019-01-26T12:19:29.089Z,97895.09
2019-01-26T12:22:35.225Z,97892.97
2019-01-26T12:25:25.312Z,97894.30
2019-01-26T12:28:12.883Z,97877.45
2019-01-26T12:30:46.626Z,97880.39
2019-01-26T12:33:22.516Z,97873.05
2019-01-26T12:35:55.083Z,97866.16
2019-01-26T12:38:30.924Z,97852.88
2019-01-26T12:41:03.255Z,97853.66
2019-01-26T12:43:37.348Z,97842.80
2019-01-26T12:46:11.140Z,97834.14
2019-01-26T12:48:52.559Z,97827.34
2019-01-26T12:51:26.920Z,97827.34
2019-01-26T12:53:59.311Z,97833.83
2019-01-26T12:56:33.472Z,97832.41
2019-01-26T12:59:07.251Z,97833.72
2019-01-26T13:01:41.310Z,97817.36
2019-01-26T13:04:12.987Z,97824.98
2019-01-26T13:06:46.278Z,97818.98
2019-01-26T13:09:19.599Z,97829.20
2019-01-26T13:11:53.898Z,97824.67
2019-01-26T13:14:28.253Z,97819.64
2019-01-26T13:17:02.201Z,97824.62
2019-01-26T13:19:37.010Z,97820.30
2019-01-26T13:22:11.201Z,97826.99
2019-01-26T13:24:45.624Z,97824.87
2019-01-26T13:27:19.761Z,97822.16
2019-01-26T13:29:54.098Z,97820.57
2019-01-26T13:32:25.525Z,97821.23
2019-01-26T13:34:59.598Z,97822.77
2019-01-26T13:37:33.883Z,97822.97
2019-01-26T13:40:17.105Z,97826.99
2019-01-26T13:42:56.964Z,97823.94
2019-01-26T13:45:28.880Z,97821.56
2019-01-26T13:48:05.142Z,97822.34
2019-01-26T13:50:42.111Z,97817.08
2019-01-26T13:53:14.740Z,97821.30
2019-01-26T13:55:47.263Z,97816.70
2019-01-26T13:58:21.342Z,97815.66
2019-01-26T14:00:56.459Z,97814.99
2019-01-26T14:03:28.746Z,97814.99
2019-01-26T14:06:02.425Z,97820.57
2019-01-26T14:08:33.939Z,97811.13
2019-01-26T14:11:07.592Z,97811.09
2019-01-26T14:13:41.526Z,97810.78
2019-01-26T14:16:13.044Z,97805.44
2019-01-26T14:18:46.494Z,97805.59
2019-01-26T14:21:19.829Z,97808.80
2019-01-26T14:23:51.578Z,97809.81
2019-01-26T14:26:25.464Z,97809.53
2019-01-26T14:28:56.817Z,97813.13
2019-01-26T14:31:30.441Z,97813.64
2019-01-26T14:34:04.558Z,97813.48
2019-01-26T14:36:38.429Z,97812.98
2019-01-26T14:39:14.238Z,97809.42
2019-01-26T14:41:48.237Z,97805.20
2019-01-26T14:44:20.728Z,97796.11
2019-01-26T14:46:54.528Z,97800.78
2019-01-26T14:49:30.106Z,97797.54
2019-01-26T14:52:02.579Z,97795.41
2019-01-26T14:54:36.540Z,97805.55
2019-01-26T14:57:08.145Z,97795.48
2019-01-26T14:59:41.720Z,97800.48
2019-01-26T15:02:14.633Z,97796.17
2019-01-26T15:04:48.304Z,97791.70
2019-01-26T15:07:19.734Z,97796.53
2019-01-26T15:09:52.988Z,97797.92
2019-01-26T15:12:25.861Z,97797.14
2019-01-26T15:14:59.376Z,97799.36
2019-01-26T15:17:35.168Z,97793.05
2019-01-26T15:20:10.893Z,97799.13
2019-01-26T15:22:43.852Z,97792.23
2019-01-26T15:25:16.766Z,97789.41
2019-01-26T15:27:48.719Z,97784.73
2019-01-26T15:30:24.538Z,97791.00
2019-01-26T15:32:57.706Z,97783.42
2019-01-26T15:35:30.823Z,97780.05
2019-01-26T15:38:08.198Z,97792.55
2019-01-26T15:40:45.790Z,97789.25
2019-01-26T15:43:19.843Z,97787.36
2019-01-26T15:45:57.866Z,97782.87
2019-01-26T15:48:30.349Z,97780.31
2019-01-26T15:51:03.772Z,97780.05
2019-01-26T15:53:37.765Z,97782.26
2019-01-26T15:56:10.760Z,97786.09
2019-01-26T15:58:42.513Z,97782.21
2019-01-26T16:01:16.442Z,97789.68
2019-01-26T16:03:47.820Z,97787.33
2019-01-26T16:06:20.613Z,97787.47
2019-01-26T16:08:58.038Z,97788.79
2019-01-26T16:11:33.530Z,97790.37
2019-01-26T16:14:07.159Z,97787.41
2019-01-26T16:16:40.979Z,97782.06
2019-01-26T16:19:13.032Z,97782.37
2019-01-26T16:21:45.818Z,97783.37
2019-01-26T16:24:19.123Z,97780.63
2019-01-26T16:27:00.951Z,97787.86
2019-01-26T16:29:34.153Z,97781.48
2019-01-26T16:32:09.475Z,97769.95
2019-01-26T16:34:45.349Z,97782.21
2019-01-26T16:37:19.090Z,97774.75
2019-01-26T16:39:57.596Z,97778.27
2019-01-26T16:42:32.190Z,97762.45
2019-01-26T16:45:04.318Z,97771.27
2019-01-26T16:47:40.618Z,97770.38
2019-01-26T16:50:18.039Z,97768.87
2019-01-26T16:52:51.579Z,97769.52
2019-01-26T16:55:23.440Z,97772.16
2019-01-26T16:57:56.220Z,97771.00
2019-01-26T17:00:51.926Z,97771.00
2019-01-26T17:03:25.327Z,97768.64
2019-01-26T17:05:56.990Z,97763.53
2019-01-26T17:08:30.157Z,97761.05
2019-01-26T17:11:06.263Z,97760.40
2019-01-26T17:13:39.166Z,97767.82
2019-01-26T17:16:11.234Z,97763.21
2019-01-26T17:18:46.262Z,97761.12
2019-01-26T17:21:17.459Z,97766.27
2019-01-26T17:23:55.165Z,97763.21
2019-01-26T17:26:30.218Z,97754.26
2019-01-26T17:29:03.344Z,97753.34
2019-01-26T17:31:36.571Z,97754.36
2019-01-26T17:34:10.928Z,97753.34
2019-01-26T17:36:44.384Z,97746.61
2019-01-26T17:39:16.369Z,97751.14
2019-01-26T17:41:49.458Z,97748.05
2019-01-26T17:44:22.668Z,97754.05
2019-01-26T17:46:54.649Z,97750.76
2019-01-26T17:49:28.613Z,97742.33
2019-01-26T17:52:02.552Z,97743.41
2019-01-26T17:54:36.561Z,97752.42
2019-01-26T17:57:10.451Z,97745.07
2019-01-26T17:59:42.537Z,97749.09
2019-01-26T18:02:14.087Z,97746.46
2019-01-26T18:04:46.576Z,97744.72
2019-01-26T18:07:19.612Z,97747.42
2019-01-26T18:09:51.386Z,97748.20
2019-01-26T18:12:22.777Z,97745.58
2019-01-26T18:14:56.624Z,97742.31
2019-01-26T18:17:30.597Z,97744.79
2019-01-26T18:20:05.380Z,97743.42
2019-01-26T18:22:38.567Z,97736.91
2019-01-26T18:25:13.238Z,97731.29
2019-01-26T18:27:46.603Z,97731.45
2019-01-26T18:30:21.126Z,97721.64
2019-01-26T18:32:54.628Z,97714.94
2019-01-26T18:35:29.612Z,97714.94
2019-01-26T18:38:02.546Z,97726.04
2019-01-26T18:40:36.618Z,97717.85
2019-01-26T18:43:35.999Z,97727.81
2019-01-26T18:46:08.571Z,97723.86
2019-01-26T18:48:43.100Z,97715.95
2019-01-26T18:51:17.581Z,97709.79
2019-01-26T18:53:53.287Z,97712.94
2019-01-26T18:56:29.008Z,97712.59
2019-01-26T18:59:01.971Z,97711.69
2019-01-26T19:01:34.664Z,97708.62
2019-01-26T19:04:16.163Z,97707.91
2019-01-26T19:06:50.421Z,97703.11
2019-01-26T19:09:22.715Z,97698.66
2019-01-26T19:12:01.415Z,97696.31
2019-01-26T19:14:33.946Z,97693.45
2019-01-26T19:17:11.772Z,97690.00
2019-01-26T19:19:51.754Z,97677.26
2019-01-26T19:22:30.082Z,97676.38
2019-01-26T19:25:02.912Z,97669.08
2019-01-26T19:27:40.946Z,97668.47
2019-01-26T19:30:21.138Z,97678.16
2019-01-26T19:32:54.313Z,97668.00
2019-01-26T19:35:29.768Z,97665.49
2019-01-26T19:38:07.527Z,97666.95
2019-01-26T19:40:40.642Z,97661.09
2019-01-26T19:43:15.264Z,97654.52
2019-01-26T19:45:51.612Z,97652.45
2019-01-26T19:48:27.162Z,97644.89
2019-01-26T19:50:59.018Z,97650.84
2019-01-26T19:53:36.519Z,97656.80
2019-01-26T19:56:12.463Z,97647.20
2019-01-26T19:58:46.162Z,97646.19
2019-01-26T20:01:18.186Z,97648.28
2019-01-26T20:03:54.354Z,97642.17
2019-01-26T20:06:25.941Z,97644.51
2019-01-26T20:08:59.922Z,97646.13
2019-01-26T20:11:34.288Z,97644.94
2019-01-26T20:14:08.158Z,97642.86
2019-01-26T20:16:42.168Z,97642.86
2019-01-26T20:19:13.626Z,97633.13
2019-01-26T20:21:46.293Z,97637.41
2019-01-26T20:24:20.040Z,97645.53
2019-01-26T20:26:54.603Z,97647.04
2019-01-26T20:29:26.564Z,97639.38
2019-01-26T20:31:59.057Z,97637.34
2019-01-26T20:34:31.000Z,97631.97
2019-01-26T20:37:04.247Z,97633.08
2019-01-26T20:39:38.189Z,97641.70
2019-01-26T20:42:12.255Z,97630.80
2019-01-26T20:44:48.033Z,97633.53
2019-01-26T20:47:20.113Z,97634.28
2019-01-26T20:49:54.162Z,97641.31
2019-01-26T20:52:29.708Z,97627.72
2019-01-26T20:55:01.160Z,97632.42
2019-01-26T20:57:33.274Z,97628.34
2019-01-26T21:00:21.332Z,97623.61
2019-01-26T21:02:55.237Z,97615.43
2019-01-26T21:05:27.140Z,97626.64
2019-01-26T21:08:00.984Z,97622.05
2019-01-26T21:10:48.864Z,97626.45
2019-01-26T21:13:22.723Z,97626.40
2019-01-26T21:15:56.270Z,97617.92
2019-01-26T21:18:43.801Z,97610.73
2019-01-26T21:21:21.058Z,97610.22
2019-01-26T21:23:54.606Z,97615.28
2019-01-26T21:26:43.762Z,97612.14
2019-01-26T21:29:22.295Z,97596.02
2019-01-26T21:31:54.476Z,97612.83
2019-01-26T21:34:31.223Z,97594.22
2019-01-26T21:37:05.279Z,97596.50
2019-01-26T21:39:40.880Z,97614.39
2019-01-26T21:42:13.460Z,97603.75
2019-01-26T21:44:47.325Z,97608.73
2019-01-26T21:47:19.556Z,97593.60
2019-01-26T21:49:52.390Z,97597.98
2019-01-26T21:52:25.529Z,97613.02
2019-01-26T21:54:57.426Z,97613.63
2019-01-26T21:57:29.371Z,97615.34
2019-01-26T22:00:02.518Z,97618.20
2019-01-26T22:02:33.764Z,97615.04
2019-01-26T22:05:08.638Z,97614.56
2019-01-26T22:07:41.634Z,97616.78
2019-01-26T22:10:15.706Z,97609.20
2019-01-26T22:12:49.641Z,97608.27
2019-01-26T22:15:24.218Z,97614.44
2019-01-26T22:17:58.147Z,97604.34
2019-01-26T22:20:31.731Z,97613.45
2019-01-26T22:23:05.579Z,97607.16
2019-01-26T22:25:39.668Z,97604.43
2019-01-26T22:28:15.069Z,97591.80
2019-01-26T22:30:47.632Z,97588.41
2019-01-26T22:33:22.281Z,97587.84
2019-01-26T22:35:55.600Z,97595.14
2019-01-26T22:38:27.701Z,97593.83
2019-01-26T22:41:01.178Z,97598.83
2019-01-26T22:43:35.289Z,97591.37
2019-01-26T22:46:07.950Z,97596.64
2019-01-26T22:48:41.669Z,97596.34
2019-01-26T22:51:13.442Z,97598.46
2019-01-26T22:53:46.639Z,97593.13
2019-01-26T22:56:19.790Z,97597.59
2019-01-26T22:58:51.704Z,97590.20
2019-01-26T23:01:33.292Z,97583.48
2019-01-26T23:04:30.761Z,97587.95
2019-01-26T23:07:44.247Z,97579.23
2019-01-26T23:10:55.901Z,97581.30
2019-01-26T23:13:44.790Z,97578.96
2019-01-26T23:16:45.196Z,97575.52
2019-01-26T23:19:33.419Z,97571.33
2019-01-26T23:23:01.920Z,97568.43
2019-01-26T23:26:22.187Z,97565.49
2019-01-26T23:29:14.695Z,97568.13
2019-01-26T23:31:46.995Z,97559.14
2019-01-26T23:34:20.936Z,97554.08
2019-01-26T23:36:52.186Z,97554.89
2019-01-26T23:39:23.443Z,97554.69
2019-01-26T23:41:57.591Z,97541.78
2019-01-26T23:44:30.947Z,97541.04
2019-01-26T23:47:04.993Z,97537.89
2019-01-26T23:49:38.949Z,97533.14
2019-01-26T23:52:12.985Z,97531.76
2019-01-26T23:54:46.777Z,97538.13
2019-01-26T23:57:18.042Z,97536.25
2019-01-26T23:59:51.935Z,97527.53
